Airfield :
LOGIN :

Register | Disclaimer

   EN    FR    IT 

 










Legend :    VFR   Marginal VFR   IFR   Intensive IFR   Very Intensive IFR
Visi :
Ceiling :
>= 8 km
>= 3000ft
5 to 8 km
1000 to 3000 ft
1500m to 5 km
500 to 1000 ft
800 to 1500m
200 to 500 ft
< 800m
< 200 ft
Symbols :   Thunderstorms  Fog  Heavy snow  Heavy precipitations  Wind > 20 kt
SIGMETs :     Misc.  Thunderstorms  Icing  Turbulence  Mountain Waves  Volcanic Ashes






- Airport Elevation : 2031 ft


LEGT - Madrid Getafe

CURRENT METAR :
  • 221730Z 27011KT 230V300 9999 FEW030 09/02 Q1014

EXPIRED METARs :
  • 221700Z 28013KT 9999 SCT040 09/02 Q1013
  • 221630Z 26009KT 9999 FEW030 SCT045 09/05 Q1013
  • 221600Z 26012KT 240V300 9999 FEW020 SCT030 10/05 Q1012
  • 221530Z 27010KT 240V300 9999 SCT030 10/05 Q1011
  • 221500Z 27012KT 240V300 9999 FEW027 09/04 Q1011

TAF TAF LEGT
Valid from the 22 at 18:00 until the 23 at 18:00 UTC


221700Z 2218/2318 24012KT 9999 SCT040 TX11/2315Z TN03/2306Z
PROB30
TEMPO 2218/2219 24018G28KT
PROB40
TEMPO 2301/2309 3000 BR BKN005
PROB30
TEMPO 2303/2309 0300 FG VV002
TEMPO 2309/2318 3000 RA SHRA BKN010 SCT030TCU
TEMPO 2311/2318 24015G25KT
PROB40
TEMPO 2314/2318 24020G32KT



MET'MAP, your aeronautical weather chart ! - Copyright ORBIFLY December 2007 - Disclaimer

ORBIFLY MET'MAP TEAM :

Programming & Development : Alexandra Zaïnal
Concept & original design : Baudouin d'Aumeries
Assistance for programming : Marc-Olivier Méhu
Technical & hardware support : Manuel Goepfert

Contact : metmap@orbifly.com




SOURCES & CREDITS :

   NOAA